createdAt,value
2019-05-14T00:02:12.581Z,101295.14
2019-05-14T00:04:45.504Z,101300.95
2019-05-14T00:07:17.071Z,101300.25
2019-05-14T00:09:48.604Z,101299.62
2019-05-14T00:12:22.245Z,101298.91
2019-05-14T00:14:53.418Z,101302.28
2019-05-14T00:17:24.952Z,101299.27
2019-05-14T00:20:07.191Z,101306.69
2019-05-14T00:22:46.703Z,101298.58
2019-05-14T00:25:18.226Z,101307.08
2019-05-14T00:27:51.729Z,101299.19
2019-05-14T00:30:22.993Z,101304.63
2019-05-14T00:32:54.461Z,101296.66
2019-05-14T00:35:27.541Z,101297.08
2019-05-14T00:38:05.393Z,101297.94
2019-05-14T00:40:37.915Z,101302.67
2019-05-14T00:43:13.230Z,101298.69
2019-05-14T00:45:44.786Z,101298.44
2019-05-14T00:48:16.333Z,101299.08
2019-05-14T00:50:47.885Z,101298.61
2019-05-14T00:53:21.357Z,101300.03
2019-05-14T00:55:52.625Z,101296.97
2019-05-14T00:58:24.142Z,101296.80
2019-05-14T01:00:55.656Z,101297.87
2019-05-14T01:03:27.226Z,101298.83
2019-05-14T01:06:03.282Z,101298.58
2019-05-14T01:08:41.363Z,101299.05
2019-05-14T01:11:12.613Z,101301.78
2019-05-14T01:13:45.327Z,101306.48
2019-05-14T01:16:16.895Z,101304.06
2019-05-14T01:18:51.182Z,101301.73
2019-05-14T01:21:24.681Z,101301.78
2019-05-14T01:23:56.244Z,101301.78
2019-05-14T01:26:28.002Z,101305.80
2019-05-14T01:29:01.496Z,101308.85
2019-05-14T01:31:34.728Z,101307.02
2019-05-14T01:34:07.774Z,101304.48
2019-05-14T01:36:41.373Z,101306.74
2019-05-14T01:39:13.110Z,101304.18
2019-05-14T01:41:44.657Z,101307.21
2019-05-14T01:44:16.205Z,101306.88
2019-05-14T01:46:51.224Z,101307.60
2019-05-14T01:49:23.031Z,101308.94
2019-05-14T01:51:54.739Z,101310.89
2019-05-14T01:54:27.300Z,101311.11
2019-05-14T01:56:58.871Z,101311.16
2019-05-14T01:59:32.147Z,101309.44
2019-05-14T02:02:04.782Z,101311.69
2019-05-14T02:04:36.211Z,101307.15
2019-05-14T02:07:07.789Z,101310.30
2019-05-14T02:09:41.771Z,101304.61
2019-05-14T02:12:13.596Z,101313.31
2019-05-14T02:14:45.142Z,101305.00
2019-05-14T02:17:16.725Z,101303.14
2019-05-14T02:19:48.315Z,101303.53
2019-05-14T02:22:21.655Z,101303.39
2019-05-14T02:24:54.428Z,101302.87
2019-05-14T02:27:25.986Z,101308.27
2019-05-14T02:30:02.206Z,101306.20
2019-05-14T02:32:40.744Z,101295.66
2019-05-14T02:35:13.722Z,101298.83
2019-05-14T02:37:46.268Z,101296.80
2019-05-14T02:40:20.217Z,101298.94
2019-05-14T02:42:51.338Z,101295.42
2019-05-14T02:45:22.910Z,101291.83
2019-05-14T02:47:55.544Z,101287.57
2019-05-14T02:50:29.666Z,101288.77
2019-05-14T02:53:01.525Z,101285.39
2019-05-14T02:55:34.202Z,101287.81
2019-05-14T02:58:09.712Z,101290.34
2019-05-14T03:00:45.420Z,101288.06
2019-05-14T03:03:19.203Z,101288.10
2019-05-14T03:05:52.146Z,101284.10
2019-05-14T03:08:23.736Z,101283.95
2019-05-14T03:10:55.386Z,101279.80
2019-05-14T03:13:29.547Z,101277.86
2019-05-14T03:16:21.107Z,101276.11
2019-05-14T03:18:35.315Z,101280.22
2019-05-14T03:21:09.310Z,101275.27
2019-05-14T03:23:40.105Z,101276.05
2019-05-14T03:26:11.777Z,101273.94
2019-05-14T03:28:43.402Z,101271.60
2019-05-14T03:31:14.991Z,101276.02
2019-05-14T03:33:51.819Z,101278.46
2019-05-14T03:36:27.061Z,101277.45
2019-05-14T03:38:59.350Z,101280.05
2019-05-14T03:41:31.124Z,101280.05
2019-05-14T03:44:03.013Z,101279.99
2019-05-14T03:46:46.037Z,101274.83
2019-05-14T03:49:09.260Z,101273.11
2019-05-14T03:51:41.162Z,101274.13
2019-05-14T03:54:13.824Z,101276.08
2019-05-14T03:56:45.420Z,101276.61
2019-05-14T03:59:19.728Z,101280.47
2019-05-14T04:01:51.274Z,101281.23
2019-05-14T04:04:23.396Z,101280.63
2019-05-14T04:06:59.895Z,101284.66
2019-05-14T04:09:33.817Z,101284.58
2019-05-14T04:12:09.947Z,101272.66
2019-05-14T04:14:44.577Z,101272.66
2019-05-14T04:17:31.575Z,101285.34
2019-05-14T04:19:54.637Z,101276.25
2019-05-14T04:22:31.743Z,101277.70
2019-05-14T04:25:10.912Z,101276.98
2019-05-14T04:27:43.833Z,101272.88
2019-05-14T04:30:20.560Z,101274.88
2019-05-14T04:32:50.680Z,101278.02
2019-05-14T04:35:22.602Z,101280.85
2019-05-14T04:37:54.222Z,101275.44
2019-05-14T04:40:25.799Z,101281.77
2019-05-14T04:42:59.197Z,101280.59
2019-05-14T04:45:32.168Z,101280.35
2019-05-14T04:48:21.462Z,101271.06
2019-05-14T04:50:40.272Z,101268.98
2019-05-14T04:53:10.413Z,101268.61
2019-05-14T04:55:42.972Z,101267.14
2019-05-14T04:58:15.715Z,101269.48
2019-05-14T05:00:49.865Z,101264.37
2019-05-14T05:03:22.813Z,101268.63
2019-05-14T05:05:58.922Z,101269.89
2019-05-14T05:08:31.070Z,101265.52
2019-05-14T05:11:02.683Z,101268.34
2019-05-14T05:13:34.365Z,101264.05
2019-05-14T05:16:09.644Z,101267.86
2019-05-14T05:18:40.355Z,101266.41
2019-05-14T05:21:11.901Z,101272.95
2019-05-14T05:23:43.424Z,101272.28
2019-05-14T05:26:18.252Z,101274.48
2019-05-14T05:29:02.530Z,101273.16
2019-05-14T05:31:23.965Z,101269.59
2019-05-14T05:33:58.053Z,101272.98
2019-05-14T05:36:29.122Z,101273.80
2019-05-14T05:39:00.754Z,101278.06
2019-05-14T05:41:33.298Z,101269.84
2019-05-14T05:44:05.154Z,101268.33
2019-05-14T05:46:39.016Z,101273.47
2019-05-14T05:49:10.632Z,101278.89
2019-05-14T05:51:43.296Z,101277.09
2019-05-14T05:54:15.045Z,101275.66
2019-05-14T05:56:50.733Z,101270.93
2019-05-14T05:59:29.300Z,101277.77
2019-05-14T06:02:02.702Z,101268.83
2019-05-14T06:04:34.344Z,101275.48
2019-05-14T06:07:05.926Z,101271.37
2019-05-14T06:09:38.096Z,101265.52
2019-05-14T06:12:10.004Z,101275.23
2019-05-14T06:14:42.894Z,101270.45
2019-05-14T06:17:14.422Z,101273.33
2019-05-14T06:19:52.119Z,101269.29
2019-05-14T06:22:24.318Z,101264.56
2019-05-14T06:24:59.408Z,101270.75
2019-05-14T06:27:31.018Z,101269.51
2019-05-14T06:30:02.659Z,101266.66
2019-05-14T06:32:34.235Z,101274.35
2019-05-14T06:35:08.863Z,101267.61
2019-05-14T06:37:40.610Z,101266.28
2019-05-14T06:40:13.436Z,101266.52
2019-05-14T06:42:48.428Z,101261.84
2019-05-14T06:45:21.730Z,101265.32
2019-05-14T06:47:53.313Z,101265.75
2019-05-14T06:50:28.429Z,101264.98
2019-05-14T06:52:59.718Z,101272.61
2019-05-14T06:55:31.366Z,101271.22
2019-05-14T06:58:03.031Z,101263.20
2019-05-14T07:00:34.664Z,101264.10
2019-05-14T07:03:08.757Z,101265.56
2019-05-14T07:05:41.083Z,101266.34
2019-05-14T07:08:12.740Z,101261.99
2019-05-14T07:10:44.529Z,101267.66
2019-05-14T07:13:18.714Z,101264.91
2019-05-14T07:15:49.613Z,101263.27
2019-05-14T07:18:21.245Z,101260.56
2019-05-14T07:20:54.327Z,101251.73
2019-05-14T07:23:32.996Z,101258.66
2019-05-14T07:26:08.396Z,101253.41
2019-05-14T07:28:42.479Z,101239.33
2019-05-14T07:31:13.687Z,101235.25
2019-05-14T07:33:50.395Z,101228.98
2019-05-14T07:36:29.270Z,101232.37
2019-05-14T07:39:01.254Z,101229.43
2019-05-14T07:41:39.469Z,101219.60
2019-05-14T07:44:18.259Z,101221.73
2019-05-14T07:46:55.220Z,101219.80
2019-05-14T07:49:29.024Z,101208.62
2019-05-14T07:52:06.418Z,101223.47
2019-05-14T07:54:41.143Z,101217.06
2019-05-14T07:57:12.700Z,101217.42
2019-05-14T07:59:44.587Z,101219.19
2019-05-14T08:02:16.255Z,101223.03
2019-05-14T08:04:51.564Z,101219.89
2019-05-14T08:07:28.170Z,101216.11
2019-05-14T08:10:02.079Z,101220.64
2019-05-14T08:12:35.406Z,101218.52
2019-05-14T08:15:17.809Z,101215.62
2019-05-14T08:17:42.386Z,101202.70
2019-05-14T08:20:14.130Z,101205.05
2019-05-14T08:22:45.853Z,101194.48
2019-05-14T08:25:19.001Z,101205.22
2019-05-14T08:27:50.926Z,101202.05
2019-05-14T08:30:22.943Z,101201.41
2019-05-14T08:32:58.373Z,101195.16
2019-05-14T08:35:34.081Z,101204.30
2019-05-14T08:38:11.381Z,101199.48
2019-05-14T08:40:43.867Z,101206.92
2019-05-14T08:43:18.878Z,101206.23
2019-05-14T08:45:50.532Z,101204.82
2019-05-14T08:48:24.343Z,101201.45
2019-05-14T08:50:55.941Z,101205.30
2019-05-14T08:53:30.758Z,101207.27
2019-05-14T08:56:02.526Z,101207.47
2019-05-14T08:58:34.625Z,101199.48
2019-05-14T09:01:08.218Z,101195.45
2019-05-14T09:03:45.312Z,101197.48
2019-05-14T09:06:19.008Z,101186.14
2019-05-14T09:08:59.305Z,101189.24
2019-05-14T09:11:35.958Z,101191.91
2019-05-14T09:14:03.877Z,101191.28
2019-05-14T09:16:42.799Z,101185.25
2019-05-14T09:19:12.282Z,101181.05
2019-05-14T09:21:45.145Z,101183.95
2019-05-14T09:24:18.215Z,101181.23
2019-05-14T09:26:50.581Z,101178.23
2019-05-14T09:29:26.099Z,101171.97
2019-05-14T09:31:55.522Z,101167.34
2019-05-14T09:34:29.131Z,101164.72
2019-05-14T09:37:08.970Z,101163.56
2019-05-14T09:39:44.979Z,101174.98
2019-05-14T09:42:19.405Z,101167.45
2019-05-14T09:44:49.985Z,101166.22
2019-05-14T09:47:21.806Z,101167.29
2019-05-14T09:49:53.504Z,101166.72
2019-05-14T09:52:29.468Z,101176.34
2019-05-14T09:55:02.410Z,101176.92
2019-05-14T09:57:33.888Z,101167.06
2019-05-14T10:00:09.145Z,101171.59
2019-05-14T10:02:41.984Z,101178.38
2019-05-14T10:05:13.572Z,101173.81
2019-05-14T10:07:45.244Z,101165.48
2019-05-14T10:10:19.618Z,101170.51
2019-05-14T10:12:56.285Z,101174.09
2019-05-14T10:15:23.765Z,101170.52
2019-05-14T10:18:00.250Z,101168.55
2019-05-14T10:20:40.445Z,101163.84
2019-05-14T10:23:09.106Z,101159.50
2019-05-14T10:25:42.454Z,101161.12
2019-05-14T10:28:19.215Z,101151.59
2019-05-14T10:30:51.419Z,101161.72
2019-05-14T10:33:25.890Z,101156.06
2019-05-14T10:35:58.800Z,101161.12
2019-05-14T10:38:34.255Z,101156.41
2019-05-14T10:41:24.633Z,101159.64
2019-05-14T10:43:58.847Z,101158.57
2019-05-14T10:46:29.557Z,101154.09
2019-05-14T10:49:16.485Z,101150.41
2019-05-14T10:51:38.927Z,101158.06
2019-05-14T10:54:21.222Z,101162.77
2019-05-14T10:56:43.987Z,101158.50
2019-05-14T10:59:18.503Z,101163.06
2019-05-14T11:01:50.370Z,101155.85
2019-05-14T11:04:21.911Z,101161.34
2019-05-14T11:06:54.676Z,101163.44
2019-05-14T11:09:28.434Z,101159.81
2019-05-14T11:11:59.755Z,101154.67
2019-05-14T11:14:32.117Z,101147.25
2019-05-14T11:17:05.105Z,101155.28
2019-05-14T11:19:38.782Z,101155.83
2019-05-14T11:22:09.874Z,101151.74
2019-05-14T11:24:42.411Z,101150.92
2019-05-14T11:27:15.080Z,101156.41
2019-05-14T11:29:49.270Z,101155.69
2019-05-14T11:32:21.368Z,101146.97
2019-05-14T11:34:54.042Z,101152.63
2019-05-14T11:37:28.017Z,101162.64
2019-05-14T11:39:59.010Z,101156.09
2019-05-14T11:42:31.698Z,101156.59
2019-05-14T11:45:03.997Z,101154.30
2019-05-14T11:47:38.033Z,101155.72
2019-05-14T11:50:10.142Z,101148.81
2019-05-14T11:52:43.919Z,101146.61
2019-05-14T11:55:18.862Z,101140.22
2019-05-14T11:57:50.638Z,101142.37
2019-05-14T12:00:29.325Z,101145.48
2019-05-14T12:03:00.688Z,101147.97
2019-05-14T12:05:32.396Z,101142.14
2019-05-14T12:08:04.047Z,101136.09
2019-05-14T12:10:38.524Z,101141.98
2019-05-14T12:13:21.740Z,101137.56
2019-05-14T12:15:53.396Z,101127.19
2019-05-14T12:18:29.220Z,101131.33
2019-05-14T12:21:00.137Z,101121.60
2019-05-14T12:23:32.393Z,101129.61
2019-05-14T12:26:04.373Z,101129.63
2019-05-14T12:28:38.461Z,101132.23
2019-05-14T12:31:09.571Z,101123.69
2019-05-14T12:33:41.962Z,101117.69
2019-05-14T12:36:14.585Z,101116.27
2019-05-14T12:38:48.432Z,101112.75
2019-05-14T12:41:20.091Z,101114.66
2019-05-14T12:43:51.727Z,101110.76
2019-05-14T12:46:23.340Z,101102.33
2019-05-14T12:48:55.052Z,101114.39
2019-05-14T12:51:30.721Z,101107.08
2019-05-14T12:54:03.321Z,101106.56
2019-05-14T12:56:39.200Z,101106.28
2019-05-14T12:59:12.048Z,101098.59
2019-05-14T13:01:49.280Z,101096.25
2019-05-14T13:04:22.357Z,101103.96
2019-05-14T13:06:55.255Z,101099.31
2019-05-14T13:09:26.891Z,101106.94
2019-05-14T13:11:58.782Z,101107.58
2019-05-14T13:14:32.346Z,101105.52
2019-05-14T13:17:04.321Z,101108.83
2019-05-14T13:19:37.979Z,101104.53
2019-05-14T13:22:15.099Z,101101.70
2019-05-14T13:24:44.357Z,101104.20
2019-05-14T13:27:19.079Z,101101.64
2019-05-14T13:29:49.729Z,101089.87
2019-05-14T13:32:21.268Z,101098.03
2019-05-14T13:34:52.964Z,101099.22
2019-05-14T13:37:28.661Z,101098.87
2019-05-14T13:39:59.350Z,101100.55
2019-05-14T13:42:31.075Z,101095.25
2019-05-14T13:45:02.631Z,101092.83
2019-05-14T13:47:34.199Z,101089.47
2019-05-14T13:50:08.504Z,101086.86
2019-05-14T13:52:58.223Z,101086.93
2019-05-14T13:55:19.678Z,101093.44
2019-05-14T13:57:51.445Z,101086.86
2019-05-14T14:00:24.428Z,101087.66
2019-05-14T14:02:58.818Z,101092.94
2019-05-14T14:05:31.103Z,101088.11
2019-05-14T14:08:02.709Z,101088.64
2019-05-14T14:10:45.041Z,101080.43
2019-05-14T14:13:11.702Z,101086.30
2019-05-14T14:15:45.951Z,101078.78
2019-05-14T14:18:21.021Z,101078.05
2019-05-14T14:20:54.160Z,101083.41
2019-05-14T14:23:30.404Z,101080.70
2019-05-14T14:25:59.646Z,101086.18
2019-05-14T14:28:31.514Z,101089.82
2019-05-14T14:31:06.906Z,101094.19
2019-05-14T14:33:38.935Z,101080.70
2019-05-14T14:36:09.932Z,101080.13
2019-05-14T14:38:45.009Z,101081.88
2019-05-14T14:41:19.463Z,101074.08
2019-05-14T14:43:55.112Z,101083.44
2019-05-14T14:46:31.343Z,101091.73
2019-05-14T14:49:06.540Z,101082.73
2019-05-14T14:51:45.256Z,101087.23
2019-05-14T14:54:18.283Z,101086.39
2019-05-14T14:56:51.990Z,101090.44
2019-05-14T14:59:30.438Z,101091.67
2019-05-14T15:05:12.789Z,101094.83
2019-05-14T15:07:41.218Z,101087.28
2019-05-14T15:10:13.263Z,101094.09
2019-05-14T15:12:45.002Z,101095.31
2019-05-14T15:15:26.391Z,101098.09
2019-05-14T15:17:59.109Z,101098.55
2019-05-14T15:20:31.196Z,101096.45
2019-05-14T15:23:02.914Z,101105.79
2019-05-14T15:25:34.865Z,101100.17
2019-05-14T15:28:09.542Z,101110.76
2019-05-14T15:30:41.548Z,101110.56
2019-05-14T15:33:14.725Z,101107.34
2019-05-14T15:35:49.132Z,101102.45
2019-05-14T15:38:20.415Z,101108.77
2019-05-14T15:40:52.037Z,101105.66
2019-05-14T15:43:28.552Z,101092.14
2019-05-14T15:46:02.437Z,101108.07
2019-05-14T15:48:39.501Z,101108.89
2019-05-14T15:51:14.752Z,101106.31
2019-05-14T15:54:05.450Z,101112.49
2019-05-14T15:56:30.049Z,101113.03
2019-05-14T15:59:01.658Z,101107.28
2019-05-14T16:01:33.299Z,101110.50
2019-05-14T16:04:05.056Z,101111.42
2019-05-14T16:06:43.834Z,101121.80
2019-05-14T16:09:15.975Z,101109.36
2019-05-14T16:11:49.651Z,101113.98
2019-05-14T16:14:23.332Z,101111.50
2019-05-14T16:16:56.914Z,101114.90
2019-05-14T16:19:30.103Z,101119.39
2019-05-14T16:22:01.795Z,101117.94
2019-05-14T16:24:52.206Z,101114.94
2019-05-14T16:27:11.259Z,101118.25
2019-05-14T16:29:46.908Z,101120.36
2019-05-14T16:32:18.579Z,101116.79
2019-05-14T16:34:50.224Z,101116.43
2019-05-14T16:37:22.171Z,101120.75
2019-05-14T16:39:56.502Z,101117.66
2019-05-14T16:42:29.292Z,101114.47
2019-05-14T16:45:01.246Z,101115.09
2019-05-14T16:47:35.297Z,101119.04
2019-05-14T16:50:10.025Z,101116.23
2019-05-14T16:52:45.136Z,101118.13
2019-05-14T16:55:26.881Z,101126.00
2019-05-14T16:58:03.784Z,101129.56
2019-05-14T17:00:42.675Z,101130.95
2019-05-14T17:03:19.338Z,101130.94
2019-05-14T17:05:51.084Z,101131.58
2019-05-14T17:08:28.478Z,101130.70
2019-05-14T17:10:59.877Z,101131.71
2019-05-14T17:13:39.494Z,101130.97
2019-05-14T17:16:12.924Z,101136.36
2019-05-14T17:18:48.577Z,101138.45
2019-05-14T17:21:22.916Z,101145.32
2019-05-14T17:23:58.077Z,101148.15
2019-05-14T17:26:31.124Z,101154.28
2019-05-14T17:29:05.289Z,101146.03
2019-05-14T17:31:40.534Z,101154.53
2019-05-14T17:34:12.131Z,101160.55
2019-05-14T17:36:43.769Z,101165.70
2019-05-14T17:39:15.398Z,101154.27
2019-05-14T17:41:48.525Z,101160.49
2019-05-14T17:44:20.489Z,101161.33
2019-05-14T17:46:53.215Z,101165.74
2019-05-14T17:49:24.776Z,101164.44
2019-05-14T17:51:58.097Z,101165.65
2019-05-14T17:54:29.915Z,101166.24
2019-05-14T17:57:02.395Z,101165.35
2019-05-14T17:59:35.036Z,101169.41
2019-05-14T18:02:08.687Z,101169.05
2019-05-14T18:04:40.497Z,101166.80
2019-05-14T18:07:12.166Z,101164.59
2019-05-14T18:09:43.809Z,101158.66
2019-05-14T18:12:18.926Z,101174.95
2019-05-14T18:14:50.885Z,101178.63
2019-05-14T18:17:22.469Z,101183.50
2019-05-14T18:19:54.070Z,101174.44
2019-05-14T18:22:28.463Z,101176.02
2019-05-14T18:25:00.938Z,101168.75
2019-05-14T18:27:39.277Z,101178.83
2019-05-14T18:30:12.256Z,101169.83
2019-05-14T18:32:44.886Z,101165.09
2019-05-14T18:35:18.878Z,101173.25
2019-05-14T18:37:50.418Z,101171.20
2019-05-14T18:40:24.094Z,101170.96
2019-05-14T18:42:59.086Z,101177.06
2019-05-14T18:45:31.276Z,101182.73
2019-05-14T18:48:04.126Z,101184.51
2019-05-14T18:50:37.036Z,101184.88
2019-05-14T18:53:12.867Z,101177.83
2019-05-14T18:55:42.091Z,101188.21
2019-05-14T18:58:13.697Z,101175.85
2019-05-14T19:00:47.906Z,101180.79
2019-05-14T19:03:20.005Z,101186.56
2019-05-14T19:05:51.597Z,101188.54
2019-05-14T19:08:24.193Z,101184.55
2019-05-14T19:11:00.282Z,101182.55
2019-05-14T19:13:31.924Z,101177.48
2019-05-14T19:16:03.535Z,101180.75
2019-05-14T19:18:35.188Z,101177.65
2019-05-14T19:21:08.812Z,101178.44
2019-05-14T19:23:40.171Z,101171.00
2019-05-14T19:26:13.619Z,101172.67
2019-05-14T19:28:45.220Z,101163.66
2019-05-14T19:31:18.462Z,101172.52
2019-05-14T19:33:50.076Z,101179.04
2019-05-14T19:36:22.902Z,101178.84
2019-05-14T19:38:54.577Z,101180.59
2019-05-14T19:41:28.127Z,101179.33
2019-05-14T19:43:59.822Z,101179.29
2019-05-14T19:46:31.400Z,101178.84
2019-05-14T19:49:03.071Z,101172.80
2019-05-14T19:51:34.730Z,101173.74
2019-05-14T19:54:08.146Z,101181.94
2019-05-14T19:56:52.392Z,101178.30
2019-05-14T19:59:13.230Z,101167.86
2019-05-14T20:01:48.233Z,101167.48
2019-05-14T20:04:20.197Z,101164.34
2019-05-14T20:06:51.756Z,101166.00
2019-05-14T20:09:24.527Z,101173.66
2019-05-14T20:11:58.164Z,101174.78
2019-05-14T20:14:29.529Z,101176.37
2019-05-14T20:17:01.189Z,101170.36
2019-05-14T20:19:32.816Z,101168.44
2019-05-14T20:22:04.505Z,101158.75
2019-05-14T20:24:36.128Z,101164.23
2019-05-14T20:27:11.759Z,101169.27
2019-05-14T20:29:42.116Z,101167.25
2019-05-14T20:32:13.671Z,101170.91
2019-05-14T20:34:45.220Z,101168.13
2019-05-14T20:37:18.961Z,101169.73
2019-05-14T20:39:50.602Z,101173.21
2019-05-14T20:42:25.939Z,101170.72
2019-05-14T20:44:57.534Z,101174.56
2019-05-14T20:47:30.489Z,101164.38
2019-05-14T20:50:02.065Z,101174.94
2019-05-14T20:52:33.597Z,101169.75
2019-05-14T20:55:09.691Z,101168.41
2019-05-14T20:57:41.365Z,101173.97
2019-05-14T21:00:13.192Z,101174.65
2019-05-14T21:02:44.739Z,101171.29
2019-05-14T21:05:18.689Z,101167.41
2019-05-14T21:07:49.547Z,101167.81
2019-05-14T21:10:23.123Z,101165.31
2019-05-14T21:12:54.670Z,101169.13
2019-05-14T21:15:28.515Z,101171.06
2019-05-14T21:18:01.600Z,101178.53
2019-05-14T21:20:33.264Z,101181.63
2019-05-14T21:23:04.843Z,101183.34
2019-05-14T21:25:38.541Z,101181.31
2019-05-14T21:28:09.809Z,101181.97
2019-05-14T21:30:41.288Z,101181.98
2019-05-14T21:33:12.785Z,101181.38
2019-05-14T21:35:44.418Z,101183.39
2019-05-14T21:38:16.070Z,101182.23
2019-05-14T21:40:49.759Z,101183.67
2019-05-14T21:43:22.005Z,101172.15
2019-05-14T21:45:54.558Z,101172.70
2019-05-14T21:48:26.136Z,101176.95
2019-05-14T21:51:00.608Z,101172.33
2019-05-14T21:53:31.013Z,101174.05
2019-05-14T21:56:03.858Z,101171.11
2019-05-14T21:58:38.772Z,101172.16
2019-05-14T22:01:11.956Z,101167.88
2019-05-14T22:03:44.128Z,101170.08
2019-05-14T22:06:18.140Z,101164.16
2019-05-14T22:08:49.064Z,101161.92
2019-05-14T22:11:20.626Z,101159.53
2019-05-14T22:13:52.278Z,101157.03
2019-05-14T22:16:23.833Z,101160.58
2019-05-14T22:18:55.424Z,101160.48
2019-05-14T22:21:28.885Z,101159.34
2019-05-14T22:24:00.300Z,101157.80
2019-05-14T22:26:32.812Z,101157.31
2019-05-14T22:29:08.348Z,101154.51
2019-05-14T22:31:40.670Z,101158.05
2019-05-14T22:34:12.233Z,101163.11
2019-05-14T22:36:44.787Z,101157.17
2019-05-14T22:39:19.789Z,101156.86
2019-05-14T22:41:50.600Z,101167.89
2019-05-14T22:44:23.851Z,101155.81
2019-05-14T22:46:55.583Z,101161.75
2019-05-14T22:49:29.290Z,101156.97
2019-05-14T22:52:02.952Z,101160.88
2019-05-14T22:54:34.562Z,101166.91
2019-05-14T22:57:06.180Z,101160.50
2019-05-14T22:59:39.258Z,101160.88
2019-05-14T23:02:19.148Z,101162.52
2019-05-14T23:04:50.042Z,101155.22
2019-05-14T23:07:21.576Z,101163.27
2019-05-14T23:09:53.114Z,101157.53
2019-05-14T23:12:24.735Z,101155.41
2019-05-14T23:14:58.145Z,101158.52
2019-05-14T23:17:30.576Z,101161.59
2019-05-14T23:20:03.665Z,101163.25
2019-05-14T23:22:35.218Z,101163.73
2019-05-14T23:25:10.083Z,101162.00
2019-05-14T23:27:41.625Z,101154.51
2019-05-14T23:30:13.728Z,101163.52
2019-05-14T23:32:45.285Z,101151.39
2019-05-14T23:35:19.073Z,101149.09
2019-05-14T23:37:50.097Z,101163.25
2019-05-14T23:40:22.714Z,101165.39
2019-05-14T23:42:55.404Z,101162.39
2019-05-14T23:45:28.499Z,101163.72
2019-05-14T23:48:00.173Z,101163.95
2019-05-14T23:50:33.816Z,101174.12
2019-05-14T23:53:09.169Z,101172.49
2019-05-14T23:55:40.716Z,101168.81
2019-05-14T23:58:20.624Z,101165.48
